Impacts TAF Board INFO
IDs:

KMCO - Orlando Intl, FL, US

Issued at 1131 UTC 07 Dec 2016
Updated at 1420 UTC 07 Dec 2016
Potential Impact None Slight Moderate High
Time1353Z 07/15Z 07/16Z 07/17Z 07/18Z 07/19Z 07/20Z 07/21Z 07/22Z 07/23Z 08/00Z 08/01Z 08/02Z 08/03Z
Type OBS PRVL PRVL PRVL PRVL PRVL PRVL PRVL PRVL PRVL PRVL PRVL PRVL PRVL
VIS 10 >6 >6 >6 >6 >6 >6 >6 >6 >6 >6 >6 >6 >6
CIG -- -- -- -- -- -- -- -- -- -- -- -- -- --
Cover FEW SCT SCT SCT SCT SCT SCT SCT SCT SCT FEW FEW FEW FEW
FltCat VFR VFR VFR VFR VFR VFR VFR VFR VFR VFR VFR VFR VFR VFR
WX -- -- -- -- -- -- -- -- -- -- -- -- -- --
WDir 330 300 300 300 300 300 300 300 300 300 VRB VRB VRB VRB
WSpd 4 5 5 5 5 5 5 5 5 5 3 3 3 3
WGst -- -- -- -- -- -- -- -- -- -- -- -- -- --

Raw TAF
KMCO 071131Z 0712/0812 31005KT P6SM SCT015
  TEMPO 0712/0713 BKN015
  FM071400 30005KT P6SM FEW020 SCT250
  FM080000 VRB03KT P6SM FEW250


Raw METAR
KMCO 071353Z 33004KT 10SM FEW200 19/17 A3006 RMK AO2 SLP177 T01940167
KMCO 071253Z 00000KT 9SM FEW200 18/16 A3005 RMK AO2 SLP174 T01780161
KMCO 071153Z 32005KT 10SM FEW015 FEW180 17/16 A3003 RMK AO2 SLP169 70076 T01720156 10189 20167 53010

METAR Board
Radar Display
Forecast Discussion